Bartlesville, OK (74006)

02:41 AM CST del 22 Febbraio 2017 (GMT -0600)
Woodland Park | | Change Station

Alt. 728 ft 36.74 °N, 95.94 °W | Updated 26 seconds ago

Sereno
Sereno
45.5 °F
Sembra 46 °F
N
0.0
Vento Variabile Vento da NO
Gusts 0.0 mph

Oggi
Massima -- | Minima -- °F
--% Possibilità di precip.
Ieri
Massima -- | Minima -- °F
Precip. -- in
Pressione 29.88 in
Visibilità 10.0 miglia
Nuvole Sereno
Raffreddamento del vento 46 °F
Punto di rugiada 38 °F
Umidità 76%
Piovosità 0.00 in
Spessore del manto nevoso Non disponibile.
7:03 AM 6:11 PM
Luna calante, 19% visible
METAR KBVO 220753Z AUTO 00000KT 10SM CLR 03/02 A2990 RMK AO2 SLP119 T00330022 TSNO $
Pressione 29.88 in
Visibilità 10.0 miglia
Nuvole Sereno
Raffreddamento del vento 46 °F
Punto di rugiada 38 °F
Umidità 76%
Piovosità 0.00 in
Spessore del manto nevoso Non disponibile.
7:03 AM 6:11 PM
Luna calante, 19% visible
METAR KBVO 220753Z AUTO 00000KT 10SM CLR 03/02 A2990 RMK AO2 SLP119 T00330022 TSNO $

Get Your Daily Forecast Email!

Thanks for signing up!

Be on the lookout for a verification email in your inbox.

You'll start receiving the daily forecast at 8 AM.

×

10-Day Weather Forecast

Almanac

Astronomia

Feb. 22, 2017 Alba Tramonto
Ora attuale
Crepuscolo civile
Crepuscolo nautico
Crepuscolo astronomico
Luna
Estensione della luce visibile
Lunghezza del giorno
Tomorrow will be .
, % of the Moon is Illuminated

Gli estremi di oggi

State Highs State Lows

Community

WunderPhotos

Upload Photos

1,962,540 foto caricate!

WunderBlog® & News

Nearby

Qualità dell'aria

  Qualità dell'aria Indice AQ Inquinante
Not available.

Profondità neve

Stazione Profondità Altitudine

Attività sismica

Città  Distanza Mag. Data & Ora
Minimo Magnitudo Mostrato è 2.5.

Temperature delle acque costiere

Località Temperatura

Stations

Stazioni meteo nelle vicinanze

Ubicazione della stazione Temp. Raffreddamento del vento Punto di rugiada Umidità Vento Precip. Alt. Aggiornato Tipo
                   

Watches & Warnings

There are currently no watches in effect.